Pensacola Naval Air Station/Forrest Sherman field
KNPA : rendu visible

Aérodrome :











RETROUVEZ-NOUS SUR...

 
LOGIN :

S'inscrire | Disclaimer

   EN    FR    IT 

 









Légende :    VFR   VFR Marginal   IFR   IFR Intensif   IFR Très Intensif
Visi : 
Plafond : 
>= 8 km
>= 3000ft
5 à 8 km
1000 à 3000 ft
1500m à 5 km
500 à 1000 ft
800 à 1500m
200 à 500 ft
< 800m
< 200 ft
Symboles :   Orages  Brouillard  Fortes neiges  Fortes précipitations  Vent > 20 kt






- Altitude de l'aérodrome : 28 ft


KNPA - Pensacola Naval Air Station/Forrest Sherman field

DERNIER METAR :
  • 201756Z 17003KT 9SM BKN007 BKN012 OVC060 21/19 A3006 RMK AO2 RAE43 SLP179 P0000 60000 T02110189 10211 20167 58010

METARs EXPIRÉS :
  • 201715Z 00000KT 4SM -RA BR BKN005 OVC012 20/18 A3009 RMK AO2 P0000 T02000178
  • 201656Z 12003KT 7SM -RA BKN005 OVC012 19/18 A3009 RMK AO2 RAB27 SLP190 P0000 T01940178
  • 201556Z 10004KT 10SM OVC010 19/17 A3009 RMK RAE1459 SLP192 P0000 T01890172

TAF TAF KNPA
Valide du 20 à 15h jusqu'au 21 à 15h UTC


2015/2115 VRB06KT 6000 RA BR SCT008 OVC012 QNH2998INS
TEMPO 2015/2021 3200 RA BR BKN007 OVC012
FM202100 30012KT 6000 RA BR BKN008 OVC020 QNH2998INS
FM202300 36015G23KT 9999 VCSH OVC007 QNH3000INS
TEMPO 2023/2103 6000 RA BR
FM210500 36015G23KT 9999 BKN010 QNH3020INS
FM211330 03015G23KT 9999 SCT015 QNH3038INS T18/2017Z T05/2113Z FN20033



MET'MAP, la Météo Aéronautique d'un coup d'oeil ! - Copyright ORBIFLY Décembre 2007 - Disclaimer

ORBIFLY MET'MAP TEAM :

Programmation & Développement : Alexandra Zaïnal
Sur une idée originale de : Baudouin d'Aumeries
Assistance à la programmation : Marc-Olivier Méhu
Soutien technique & logistique : Manuel Goepfert

Contact : metmap@orbifly.com




SOURCES & CREDITS :

   NOAA       Earth
Advisory